createdAt,value
2023-03-05T00:00:05.529Z,5.70
2023-03-05T00:00:14.903Z,6.10
2023-03-05T00:00:24.932Z,6.00
2023-03-05T00:00:34.906Z,6.70
2023-03-05T00:00:44.900Z,6.70
2023-03-05T00:00:54.896Z,7.10
2023-03-05T00:01:04.885Z,5.90
2023-03-05T00:01:14.893Z,6.30
2023-03-05T00:01:24.911Z,5.80
2023-03-05T00:01:34.912Z,5.90
2023-03-05T00:01:44.912Z,6.00
2023-03-05T00:01:55.597Z,6.20
2023-03-05T00:02:06.861Z,6.00
2023-03-05T00:02:15.030Z,6.00
2023-03-05T00:02:24.981Z,6.00
2023-03-05T00:02:35.126Z,6.00
2023-03-05T00:02:44.962Z,5.60
2023-03-05T00:02:54.930Z,5.60
2023-03-05T00:03:04.892Z,6.10
2023-03-05T00:03:14.935Z,6.60
2023-03-05T00:03:24.908Z,6.60
2023-03-05T00:03:34.965Z,6.20
2023-03-05T00:03:45.661Z,5.60
2023-03-05T00:03:54.970Z,5.20
2023-03-05T00:04:04.993Z,5.20
2023-03-05T00:04:14.862Z,5.30
2023-03-05T00:04:24.973Z,5.60
2023-03-05T00:04:34.893Z,5.60
2023-03-05T00:04:45.027Z,5.10
2023-03-05T00:04:54.863Z,5.80
2023-03-05T00:05:05.016Z,7.20
2023-03-05T00:05:14.860Z,7.70
2023-03-05T00:05:24.867Z,7.00
2023-03-05T00:05:34.910Z,5.60
2023-03-05T00:05:44.874Z,5.30
2023-03-05T00:05:54.863Z,5.80
2023-03-05T00:06:05.558Z,5.70
2023-03-05T00:06:14.879Z,6.10
2023-03-05T00:06:24.871Z,5.90
2023-03-05T00:06:34.870Z,6.20
2023-03-05T00:06:44.875Z,6.60
2023-03-05T00:06:54.882Z,6.60
2023-03-05T00:07:04.848Z,6.40
2023-03-05T00:07:15.562Z,6.30
2023-03-05T00:07:24.896Z,6.10
2023-03-05T00:07:34.886Z,6.00
2023-03-05T00:07:44.978Z,5.60
2023-03-05T00:07:54.892Z,6.40
2023-03-05T00:08:04.859Z,6.80
2023-03-05T00:08:14.968Z,6.50
2023-03-05T00:08:24.857Z,5.60
2023-03-05T00:08:34.869Z,5.30
2023-03-05T00:08:44.846Z,5.30
2023-03-05T00:08:54.865Z,5.20
2023-03-05T00:09:04.846Z,5.10
2023-03-05T00:09:14.857Z,5.10
2023-03-05T00:09:24.866Z,5.60
2023-03-05T00:09:35.920Z,6.10
2023-03-05T00:09:44.836Z,7.00
2023-03-05T00:09:54.908Z,6.60
2023-03-05T00:10:05.546Z,6.30
2023-03-05T00:10:15.594Z,6.10
2023-03-05T00:10:25.006Z,6.30
2023-03-05T00:10:34.938Z,5.90
2023-03-05T00:10:44.830Z,5.60
2023-03-05T00:10:54.840Z,5.30
2023-03-05T00:11:04.833Z,5.90
2023-03-05T00:11:14.859Z,6.50
2023-03-05T00:11:25.570Z,7.00
2023-03-05T00:11:34.861Z,7.10
2023-03-05T00:11:47.648Z,6.50
2023-03-05T00:11:54.826Z,6.10
2023-03-05T00:12:04.838Z,5.90
2023-03-05T00:12:14.975Z,5.60
2023-03-05T00:12:24.911Z,5.90
2023-03-05T00:12:34.842Z,6.40
2023-03-05T00:12:44.874Z,6.20
2023-03-05T00:12:54.924Z,6.10
2023-03-05T00:13:04.918Z,5.50
2023-03-05T00:13:14.824Z,6.00
2023-03-05T00:13:24.828Z,5.70
2023-03-05T00:13:34.854Z,5.50
2023-03-05T00:13:44.824Z,5.20
2023-03-05T00:13:54.854Z,5.70
2023-03-05T00:14:04.855Z,5.50
2023-03-05T00:14:14.833Z,5.60
2023-03-05T00:14:25.555Z,5.50
2023-03-05T00:14:34.843Z,5.60
2023-03-05T00:14:44.863Z,5.60
2023-03-05T00:14:54.836Z,5.50
2023-03-05T00:15:04.856Z,6.10
2023-03-05T00:15:14.836Z,6.40
2023-03-05T00:15:24.859Z,6.70
2023-03-05T00:15:35.021Z,6.20
2023-03-05T00:15:44.845Z,6.00
2023-03-05T00:15:54.886Z,6.00
2023-03-05T00:16:04.915Z,7.20
2023-03-05T00:16:14.918Z,6.70
2023-03-05T00:16:24.959Z,6.70
2023-03-05T00:16:35.579Z,5.30
2023-03-05T00:16:45.001Z,5.10
2023-03-05T00:16:55.551Z,5.20
2023-03-05T00:17:04.818Z,5.70
2023-03-05T00:17:14.899Z,6.30
2023-03-05T00:17:24.797Z,6.00
2023-03-05T00:17:34.813Z,5.60
2023-03-05T00:17:44.813Z,5.10
2023-03-05T00:17:54.838Z,5.70
2023-03-05T00:18:04.864Z,6.50
2023-03-05T00:18:15.534Z,6.80
2023-03-05T00:18:24.797Z,6.30
2023-03-05T00:18:34.828Z,5.30
2023-03-05T00:18:44.932Z,5.00
2023-03-05T00:18:54.844Z,4.80
2023-03-05T00:19:04.806Z,5.00
2023-03-05T00:19:14.852Z,4.60
2023-03-05T00:19:24.799Z,4.50
2023-03-05T00:19:34.793Z,5.20
2023-03-05T00:19:44.820Z,5.60
2023-03-05T00:19:54.805Z,6.30
2023-03-05T00:20:04.805Z,5.90
2023-03-05T00:20:14.940Z,6.00
2023-03-05T00:20:24.814Z,7.00
2023-03-05T00:20:34.792Z,7.10
2023-03-05T00:20:44.907Z,7.50
2023-03-05T00:20:54.795Z,6.70
2023-03-05T00:21:04.796Z,6.30
2023-03-05T00:21:14.817Z,6.00
2023-03-05T00:21:24.810Z,4.90
2023-03-05T00:21:34.806Z,5.40
2023-03-05T00:21:44.779Z,5.10
2023-03-05T00:21:54.812Z,5.70
2023-03-05T00:22:04.803Z,5.60
2023-03-05T00:22:15.602Z,5.70
2023-03-05T00:22:24.790Z,5.50
2023-03-05T00:22:34.810Z,5.70
2023-03-05T00:22:45.598Z,5.60
2023-03-05T00:22:54.998Z,5.70
2023-03-05T00:23:04.805Z,5.20
2023-03-05T00:23:14.901Z,5.90
2023-03-05T00:23:24.782Z,5.90
2023-03-05T00:23:34.771Z,6.30
2023-03-05T00:23:44.794Z,5.70
2023-03-05T00:23:54.783Z,6.30
2023-03-05T00:24:04.790Z,6.40
2023-03-05T00:24:14.798Z,6.60
2023-03-05T00:24:24.818Z,5.90
2023-03-05T00:24:34.770Z,6.40
2023-03-05T00:24:44.798Z,6.20
2023-03-05T00:24:55.548Z,6.30
2023-03-05T00:25:04.780Z,6.10
2023-03-05T00:25:14.795Z,6.40
2023-03-05T00:25:24.845Z,7.10
2023-03-05T00:25:34.772Z,6.50
2023-03-05T00:25:44.775Z,6.20
2023-03-05T00:25:54.815Z,7.00
2023-03-05T00:26:04.776Z,6.90
2023-03-05T00:26:14.786Z,7.20
2023-03-05T00:26:24.807Z,6.40
2023-03-05T00:26:34.777Z,6.60
2023-03-05T00:26:44.812Z,6.20
2023-03-05T00:26:54.915Z,5.80
2023-03-05T00:27:04.893Z,5.80
2023-03-05T00:27:14.769Z,5.90
2023-03-05T00:27:24.874Z,5.80
2023-03-05T00:27:34.859Z,5.90
2023-03-05T00:27:44.765Z,5.90
2023-03-05T00:27:54.822Z,5.50
2023-03-05T00:28:04.789Z,5.70
2023-03-05T00:28:14.779Z,5.70
2023-03-05T00:28:24.846Z,5.80
2023-03-05T00:28:34.776Z,5.80
2023-03-05T00:28:44.768Z,6.20
2023-03-05T00:28:54.771Z,5.60
2023-03-05T00:29:05.527Z,4.70
2023-03-05T00:29:14.750Z,3.80
2023-03-05T00:29:24.773Z,4.40
2023-03-05T00:29:34.747Z,5.50
2023-03-05T00:29:44.752Z,5.90
2023-03-05T00:29:54.764Z,5.90
2023-03-05T00:30:04.759Z,5.70
2023-03-05T00:30:14.752Z,5.40
2023-03-05T00:30:24.771Z,5.30
2023-03-05T00:30:34.760Z,5.00
2023-03-05T00:30:44.783Z,5.40
2023-03-05T00:30:54.838Z,5.70
2023-03-05T00:31:05.602Z,5.70
2023-03-05T00:31:14.793Z,5.40
2023-03-05T00:31:24.832Z,5.10
2023-03-05T00:31:34.814Z,5.80
2023-03-05T00:31:44.755Z,6.60
2023-03-05T00:31:54.749Z,7.10
2023-03-05T00:32:04.813Z,6.20
2023-03-05T00:32:14.828Z,5.70
2023-03-05T00:32:24.818Z,5.30
2023-03-05T00:32:34.799Z,5.50
2023-03-05T00:32:44.753Z,5.00
2023-03-05T00:32:54.762Z,5.40
2023-03-05T00:33:04.777Z,5.40
2023-03-05T00:33:14.817Z,6.40
2023-03-05T00:33:24.751Z,6.70
2023-03-05T00:33:34.781Z,6.80
2023-03-05T00:33:44.739Z,6.90
2023-03-05T00:33:55.506Z,6.20
2023-03-05T00:34:04.732Z,5.90
2023-03-05T00:34:14.769Z,5.50
2023-03-05T00:34:24.774Z,5.60
2023-03-05T00:34:34.746Z,5.60
2023-03-05T00:34:44.768Z,4.90
2023-03-05T00:34:54.754Z,4.90
2023-03-05T00:35:04.747Z,4.90
2023-03-05T00:35:14.774Z,5.20
2023-03-05T00:35:24.909Z,5.10
2023-03-05T00:35:35.289Z,5.40
2023-03-05T00:35:44.834Z,5.50
2023-03-05T00:35:54.815Z,6.00
2023-03-05T00:36:04.813Z,5.70
2023-03-05T00:36:14.728Z,5.70
2023-03-05T00:36:24.873Z,5.20
2023-03-05T00:36:34.739Z,5.00
2023-03-05T00:36:44.733Z,4.50
2023-03-05T00:36:54.720Z,4.90
2023-03-05T00:37:05.720Z,5.30
2023-03-05T00:37:14.729Z,5.40
2023-03-05T00:37:24.795Z,5.30
2023-03-05T00:37:34.743Z,4.90
2023-03-05T00:37:44.744Z,5.10
2023-03-05T00:37:54.725Z,4.70
2023-03-05T00:38:04.753Z,5.50
2023-03-05T00:38:14.742Z,5.40
2023-03-05T00:38:24.736Z,6.00
2023-03-05T00:38:34.739Z,5.50
2023-03-05T00:38:44.773Z,5.20
2023-03-05T00:38:54.726Z,4.90
2023-03-05T00:39:04.722Z,4.70
2023-03-05T00:39:15.673Z,5.00
2023-03-05T00:39:24.735Z,5.20
2023-03-05T00:39:34.757Z,5.50
2023-03-05T00:39:44.725Z,5.70
2023-03-05T00:39:54.714Z,5.50
2023-03-05T00:40:04.885Z,5.60
2023-03-05T00:40:14.764Z,5.50
2023-03-05T00:40:24.861Z,5.50
2023-03-05T00:40:34.825Z,5.20
2023-03-05T00:40:44.822Z,5.00
2023-03-05T00:40:54.716Z,5.10
2023-03-05T00:41:04.740Z,5.30
2023-03-05T00:41:14.719Z,5.80
2023-03-05T00:41:25.538Z,5.70
2023-03-05T00:41:35.549Z,5.70
2023-03-05T00:41:44.717Z,5.30
2023-03-05T00:41:54.702Z,5.70
2023-03-05T00:42:04.732Z,5.60
2023-03-05T00:42:14.729Z,6.00
2023-03-05T00:42:24.724Z,6.10
2023-03-05T00:42:34.738Z,6.20
2023-03-05T00:42:44.695Z,6.20
2023-03-05T00:42:55.566Z,6.20
2023-03-05T00:43:04.730Z,6.00
2023-03-05T00:43:14.709Z,5.70
2023-03-05T00:43:24.720Z,6.50
2023-03-05T00:43:35.550Z,5.90
2023-03-05T00:43:44.697Z,5.70
2023-03-05T00:43:54.743Z,5.00
2023-03-05T00:44:04.698Z,5.50
2023-03-05T00:44:14.700Z,5.90
2023-03-05T00:44:24.726Z,5.60
2023-03-05T00:44:34.707Z,5.60
2023-03-05T00:44:44.730Z,6.00
2023-03-05T00:44:54.721Z,6.30
2023-03-05T00:45:04.705Z,6.50
2023-03-05T00:45:14.734Z,6.50
2023-03-05T00:45:24.723Z,6.10
2023-03-05T00:45:34.685Z,5.60
2023-03-05T00:45:45.542Z,4.80
2023-03-05T00:45:54.689Z,4.90
2023-03-05T00:46:04.747Z,5.80
2023-03-05T00:46:15.612Z,7.50
2023-03-05T00:46:24.744Z,7.30
2023-03-05T00:46:34.742Z,7.10
2023-03-05T00:46:44.789Z,6.00
2023-03-05T00:46:54.760Z,6.50
2023-03-05T00:47:04.681Z,6.40
2023-03-05T00:47:14.717Z,5.60
2023-03-05T00:47:24.688Z,5.60
2023-03-05T00:47:34.689Z,5.20
2023-03-05T00:47:44.711Z,5.20
2023-03-05T00:47:54.806Z,4.80
2023-03-05T00:48:04.680Z,5.30
2023-03-05T00:48:14.679Z,5.80
2023-03-05T00:48:24.671Z,5.90
2023-03-05T00:48:35.548Z,5.50
2023-03-05T00:48:44.675Z,5.70
2023-03-05T00:48:54.676Z,5.70
2023-03-05T00:49:04.740Z,6.10
2023-03-05T00:49:14.666Z,5.70
2023-03-05T00:49:24.668Z,6.10
2023-03-05T00:49:34.712Z,6.00
2023-03-05T00:49:44.714Z,5.70
2023-03-05T00:49:55.570Z,5.20
2023-03-05T00:50:04.710Z,5.30
2023-03-05T00:50:14.764Z,5.70
2023-03-05T00:50:24.671Z,6.50
2023-03-05T00:50:34.689Z,5.90
2023-03-05T00:50:44.675Z,6.10
2023-03-05T00:50:54.680Z,5.30
2023-03-05T00:51:04.684Z,6.10
2023-03-05T00:51:14.675Z,6.30
2023-03-05T00:51:24.687Z,6.30
2023-03-05T00:51:34.760Z,5.60
2023-03-05T00:51:44.698Z,5.00
2023-03-05T00:51:55.544Z,5.50
2023-03-05T00:52:04.727Z,5.40
2023-03-05T00:52:14.736Z,5.70
2023-03-05T00:52:24.665Z,5.00
2023-03-05T00:52:34.712Z,5.40
2023-03-05T00:52:44.665Z,5.00
2023-03-05T00:52:54.669Z,4.70
2023-03-05T00:53:04.664Z,4.90
2023-03-05T00:53:14.675Z,5.30
2023-03-05T00:53:24.682Z,5.70
2023-03-05T00:53:34.671Z,5.60
2023-03-05T00:53:44.666Z,5.90
2023-03-05T00:53:54.681Z,6.10
2023-03-05T00:54:04.759Z,6.30
2023-03-05T00:54:15.579Z,6.00
2023-03-05T00:54:24.683Z,7.00
2023-03-05T00:54:34.661Z,6.90
2023-03-05T00:54:44.650Z,6.70
2023-03-05T00:54:54.645Z,5.90
2023-03-05T00:55:04.669Z,5.90
2023-03-05T00:55:14.652Z,6.00
2023-03-05T00:55:24.642Z,6.00
2023-03-05T00:55:34.646Z,6.60
2023-03-05T00:55:44.664Z,7.00
2023-03-05T00:55:54.685Z,6.70
2023-03-05T00:56:04.683Z,6.00
2023-03-05T00:56:14.778Z,6.10
2023-03-05T00:56:24.650Z,6.00
2023-03-05T00:56:34.690Z,6.10
2023-03-05T00:56:45.535Z,5.40
2023-03-05T00:56:54.657Z,5.90
2023-03-05T00:57:04.673Z,5.80
2023-03-05T00:57:14.676Z,7.10
2023-03-05T00:57:24.634Z,6.60
2023-03-05T00:57:34.648Z,6.50
2023-03-05T00:57:44.780Z,5.40
2023-03-05T00:57:54.654Z,6.10
2023-03-05T00:58:05.614Z,6.00
2023-03-05T00:58:14.704Z,6.40
2023-03-05T00:58:24.626Z,6.10
2023-03-05T00:58:34.644Z,6.10
2023-03-05T00:58:44.697Z,6.00
2023-03-05T00:58:54.635Z,5.50
2023-03-05T00:59:04.640Z,6.30
2023-03-05T00:59:14.678Z,6.20
2023-03-05T00:59:25.151Z,6.60
2023-03-05T00:59:34.650Z,5.80
2023-03-05T00:59:44.718Z,6.00
2023-03-05T00:59:54.645Z,5.60
2023-03-05T01:00:04.661Z,5.90
2023-03-05T01:00:15.643Z,5.70
2023-03-05T01:00:24.623Z,5.80
2023-03-05T01:00:34.879Z,5.50
2023-03-05T01:00:45.559Z,5.20
2023-03-05T01:00:54.648Z,5.30
2023-03-05T01:01:04.622Z,5.20
2023-03-05T01:01:14.614Z,5.90
2023-03-05T01:01:24.745Z,5.80
2023-03-05T01:01:34.727Z,6.60
2023-03-05T01:01:44.721Z,5.90
2023-03-05T01:01:54.699Z,5.80
2023-03-05T01:02:04.720Z,5.40
2023-03-05T01:02:14.623Z,5.70
2023-03-05T01:02:24.684Z,5.70
2023-03-05T01:02:34.916Z,6.70
2023-03-05T01:02:44.692Z,6.80
2023-03-05T01:02:54.688Z,7.50
2023-03-05T01:03:04.607Z,6.50
2023-03-05T01:03:14.609Z,6.40
2023-03-05T01:03:24.641Z,6.40
2023-03-05T01:03:34.613Z,6.80
2023-03-05T01:03:44.716Z,7.00
2023-03-05T01:03:54.634Z,6.50
2023-03-05T01:04:04.648Z,6.60
2023-03-05T01:04:15.583Z,6.70
2023-03-05T01:04:24.612Z,7.00
2023-03-05T01:04:35.545Z,6.40
2023-03-05T01:04:44.643Z,6.30
2023-03-05T01:04:54.624Z,5.80
2023-03-05T01:05:04.633Z,6.00
2023-03-05T01:05:14.689Z,6.20
2023-03-05T01:05:24.660Z,6.80
2023-03-05T01:05:34.651Z,6.30
2023-03-05T01:05:44.681Z,5.70
2023-03-05T01:05:54.647Z,5.00
2023-03-05T01:06:04.598Z,5.10
2023-03-05T01:06:15.650Z,5.20
2023-03-05T01:06:31.619Z,5.50
2023-03-05T01:06:34.691Z,6.20
2023-03-05T01:06:44.794Z,6.20
2023-03-05T01:06:54.595Z,6.60
2023-03-05T01:07:04.591Z,6.10
2023-03-05T01:07:14.616Z,6.50
2023-03-05T01:07:25.678Z,6.30
2023-03-05T01:07:34.593Z,5.90
2023-03-05T01:07:44.593Z,6.10
2023-03-05T01:07:54.617Z,5.80
2023-03-05T01:08:04.616Z,6.10
2023-03-05T01:08:14.626Z,5.80
2023-03-05T01:08:24.677Z,5.90
2023-03-05T01:08:35.576Z,7.00
2023-03-05T01:08:44.749Z,6.90
2023-03-05T01:08:54.588Z,6.60
2023-03-05T01:09:04.626Z,5.80
2023-03-05T01:09:14.588Z,5.40
2023-03-05T01:09:24.615Z,5.60
2023-03-05T01:09:34.608Z,5.30
2023-03-05T01:09:45.121Z,5.70
2023-03-05T01:09:54.572Z,5.60
2023-03-05T01:10:04.820Z,6.10
2023-03-05T01:10:14.591Z,5.80
2023-03-05T01:10:24.575Z,6.10
2023-03-05T01:10:34.615Z,6.00
2023-03-05T01:10:45.635Z,6.50
2023-03-05T01:10:54.584Z,6.20
2023-03-05T01:11:04.621Z,5.80
2023-03-05T01:11:14.567Z,5.20
2023-03-05T01:11:24.627Z,5.20
2023-03-05T01:11:34.711Z,5.10
2023-03-05T01:11:44.625Z,5.50
2023-03-05T01:11:54.591Z,6.00
2023-03-05T01:12:04.571Z,6.00
2023-03-05T01:12:14.574Z,5.70
2023-03-05T01:12:24.582Z,5.00
2023-03-05T01:12:34.695Z,5.40
2023-03-05T01:12:45.568Z,5.60
2023-03-05T01:12:54.760Z,5.70
2023-03-05T01:13:04.660Z,6.60
2023-03-05T01:13:14.561Z,6.40
2023-03-05T01:13:24.585Z,6.40
2023-03-05T01:13:34.570Z,5.00
2023-03-05T01:13:44.581Z,5.10
2023-03-05T01:13:54.601Z,5.50
2023-03-05T01:14:04.544Z,5.60
2023-03-05T01:14:14.600Z,5.00
2023-03-05T01:14:24.609Z,4.90
2023-03-05T01:14:35.573Z,5.20
2023-03-05T01:14:47.555Z,5.60
2023-03-05T01:14:54.728Z,5.10
2023-03-05T01:15:04.685Z,5.20
2023-03-05T01:15:15.769Z,5.00
2023-03-05T01:15:24.587Z,5.10
2023-03-05T01:15:34.539Z,5.00
2023-03-05T01:15:44.726Z,4.90
2023-03-05T01:15:54.554Z,5.10
2023-03-05T01:16:04.625Z,5.30
2023-03-05T01:16:14.710Z,6.20
2023-03-05T01:16:24.725Z,6.20
2023-03-05T01:16:34.632Z,6.00
2023-03-05T01:16:44.567Z,5.90
2023-03-05T01:16:54.554Z,6.20
2023-03-05T01:17:04.548Z,6.00
2023-03-05T01:17:14.532Z,6.10
2023-03-05T01:17:24.563Z,5.70
2023-03-05T01:17:34.553Z,5.90
2023-03-05T01:17:44.559Z,5.40
2023-03-05T01:17:54.540Z,5.70
2023-03-05T01:18:04.563Z,5.80
2023-03-05T01:18:14.554Z,5.90
2023-03-05T01:18:24.537Z,5.60
2023-03-05T01:18:37.529Z,5.40
2023-03-05T01:18:44.566Z,5.60
2023-03-05T01:18:54.522Z,5.50
2023-03-05T01:19:04.676Z,5.60
2023-03-05T01:19:14.539Z,5.10
2023-03-05T01:19:24.546Z,4.70
2023-03-05T01:19:34.524Z,5.00
2023-03-05T01:19:44.525Z,5.00
2023-03-05T01:19:54.541Z,5.20
2023-03-05T01:20:04.575Z,4.70
2023-03-05T01:20:14.553Z,5.10
2023-03-05T01:20:24.532Z,5.80
2023-03-05T01:20:34.524Z,5.70
2023-03-05T01:20:45.029Z,5.60
2023-03-05T01:20:54.539Z,5.60
2023-03-05T01:21:04.592Z,5.60
2023-03-05T01:21:14.526Z,5.50
2023-03-05T01:21:24.572Z,4.90
2023-03-05T01:21:34.542Z,5.20
2023-03-05T01:21:44.513Z,5.50
2023-03-05T01:21:54.522Z,5.40
2023-03-05T01:22:04.571Z,5.70
2023-03-05T01:22:14.506Z,5.50
2023-03-05T01:22:24.510Z,5.60
2023-03-05T01:22:34.503Z,5.50
2023-03-05T01:22:44.557Z,5.50
2023-03-05T01:22:54.514Z,6.10
2023-03-05T01:23:04.555Z,6.00
2023-03-05T01:23:15.049Z,5.70
2023-03-05T01:23:24.515Z,5.10
2023-03-05T01:23:34.647Z,5.00
2023-03-05T01:23:44.590Z,5.50
2023-03-05T01:23:54.523Z,5.50
2023-03-05T01:24:04.522Z,5.00
2023-03-05T01:24:14.507Z,4.30
2023-03-05T01:24:24.531Z,4.60
2023-03-05T01:24:34.497Z,5.00
2023-03-05T01:24:44.619Z,5.30
2023-03-05T01:24:54.490Z,4.90
2023-03-05T01:25:04.500Z,5.40
2023-03-05T01:25:14.602Z,5.10
2023-03-05T01:25:24.648Z,5.10
2023-03-05T01:25:34.490Z,4.80
2023-03-05T01:25:44.550Z,5.40
2023-03-05T01:25:54.488Z,5.50
2023-03-05T01:26:04.512Z,5.50
2023-03-05T01:26:14.488Z,5.60
2023-03-05T01:26:24.483Z,5.90
2023-03-05T01:26:34.505Z,5.50
2023-03-05T01:26:44.507Z,5.00
2023-03-05T01:26:54.678Z,5.00
2023-03-05T01:27:04.513Z,5.50
2023-03-05T01:27:14.566Z,5.80
2023-03-05T01:27:25.036Z,5.40
2023-03-05T01:27:34.523Z,5.40
2023-03-05T01:27:44.491Z,6.10
2023-03-05T01:27:54.486Z,6.00
2023-03-05T01:28:04.580Z,6.70
2023-03-05T01:28:14.496Z,5.70
2023-03-05T01:28:24.486Z,5.80
2023-03-05T01:28:34.489Z,5.20
2023-03-05T01:28:44.483Z,6.10
2023-03-05T01:28:54.518Z,6.00
2023-03-05T01:29:04.504Z,5.70
2023-03-05T01:29:14.469Z,6.20
2023-03-05T01:29:24.539Z,6.40
2023-03-05T01:29:34.587Z,7.00
2023-03-05T01:29:44.469Z,6.20
2023-03-05T01:29:54.467Z,5.80
2023-03-05T01:30:04.528Z,5.10
2023-03-05T01:30:14.484Z,4.60
2023-03-05T01:30:24.598Z,5.30
2023-03-05T01:30:34.508Z,5.30
2023-03-05T01:30:44.474Z,6.70
2023-03-05T01:30:54.636Z,6.50
2023-03-05T01:31:05.061Z,7.50
2023-03-05T01:31:14.564Z,6.40
2023-03-05T01:31:24.623Z,6.50
2023-03-05T01:31:35.138Z,5.40
2023-03-05T01:31:44.569Z,5.90
2023-03-05T01:31:54.565Z,5.40
2023-03-05T01:32:04.502Z,5.30
2023-03-05T01:32:14.579Z,5.20
2023-03-05T01:32:24.499Z,5.10
2023-03-05T01:32:35.710Z,5.40
2023-03-05T01:32:44.481Z,5.30
2023-03-05T01:32:54.472Z,6.10
2023-03-05T01:33:04.465Z,6.00
2023-03-05T01:33:14.457Z,5.80
2023-03-05T01:33:24.521Z,5.20
2023-03-05T01:33:35.028Z,5.20
2023-03-05T01:33:44.451Z,5.70
2023-03-05T01:33:54.489Z,5.70
2023-03-05T01:34:04.453Z,5.70
2023-03-05T01:34:14.471Z,6.50
2023-03-05T01:34:24.446Z,6.80
2023-03-05T01:34:34.453Z,6.90
2023-03-05T01:34:44.459Z,5.70
2023-03-05T01:34:54.446Z,5.70
2023-03-05T01:35:04.477Z,5.80
2023-03-05T01:35:14.453Z,6.80
2023-03-05T01:35:24.483Z,6.40
2023-03-05T01:35:34.611Z,6.10
2023-03-05T01:35:45.070Z,5.00
2023-03-05T01:35:54.456Z,5.10
2023-03-05T01:36:04.468Z,5.40
2023-03-05T01:36:14.456Z,5.00
2023-03-05T01:36:24.448Z,4.90
2023-03-05T01:36:34.458Z,4.60
2023-03-05T01:36:44.474Z,5.60
2023-03-05T01:36:54.464Z,5.50
2023-03-05T01:37:04.459Z,5.70
2023-03-05T01:37:14.474Z,5.70
2023-03-05T01:37:24.448Z,6.70
2023-03-05T01:37:34.440Z,6.90
2023-03-05T01:37:44.527Z,5.70
2023-03-05T01:37:54.570Z,4.60
2023-03-05T01:38:04.454Z,4.20
2023-03-05T01:38:14.441Z,4.70
2023-03-05T01:38:24.463Z,4.80
2023-03-05T01:38:34.447Z,5.40
2023-03-05T01:38:44.498Z,5.70
2023-03-05T01:38:54.449Z,5.40
2023-03-05T01:39:04.469Z,5.40
2023-03-05T01:39:14.438Z,5.10
2023-03-05T01:39:24.446Z,5.40
2023-03-05T01:39:34.454Z,5.10
2023-03-05T01:39:44.441Z,5.30
2023-03-05T01:39:55.037Z,5.70
2023-03-05T01:40:04.458Z,5.60
2023-03-05T01:40:14.448Z,5.20
2023-03-05T01:40:24.426Z,4.90
2023-03-05T01:40:34.491Z,5.20
2023-03-05T01:40:44.554Z,5.20
2023-03-05T01:40:54.484Z,5.50
2023-03-05T01:41:04.421Z,5.30
2023-03-05T01:41:14.441Z,5.70
2023-03-05T01:41:24.476Z,4.90
2023-03-05T01:41:34.430Z,4.80
2023-03-05T01:41:45.033Z,4.60
2023-03-05T01:41:54.482Z,5.40
2023-03-05T01:42:04.563Z,5.90
2023-03-05T01:42:14.447Z,5.80
2023-03-05T01:42:24.438Z,5.60
2023-03-05T01:42:34.853Z,5.20
2023-03-05T01:42:44.446Z,5.90
2023-03-05T01:42:54.412Z,6.40
2023-03-05T01:43:04.416Z,6.50
2023-03-05T01:43:14.447Z,6.40
2023-03-05T01:43:24.498Z,6.40
2023-03-05T01:43:34.426Z,5.70
2023-03-05T01:43:44.427Z,5.90
2023-03-05T01:43:54.413Z,5.90
2023-03-05T01:44:05.028Z,6.60
2023-03-05T01:44:14.569Z,5.80
2023-03-05T01:44:24.405Z,5.90
2023-03-05T01:44:34.437Z,5.30
2023-03-05T01:44:44.418Z,5.60
2023-03-05T01:44:54.411Z,4.90
2023-03-05T01:45:05.054Z,5.20
2023-03-05T01:45:14.647Z,5.70
2023-03-05T01:45:24.515Z,5.40
2023-03-05T01:45:34.518Z,5.50
2023-03-05T01:45:44.457Z,5.00
2023-03-05T01:45:54.650Z,5.40
2023-03-05T01:46:04.481Z,5.40
2023-03-05T01:46:14.488Z,5.40
2023-03-05T01:46:24.399Z,5.20
2023-03-05T01:46:34.401Z,5.30
2023-03-05T01:46:44.434Z,5.20
2023-03-05T01:46:54.426Z,5.50
2023-03-05T01:47:04.402Z,4.80
2023-03-05T01:47:14.438Z,4.40
2023-03-05T01:47:24.404Z,3.90
2023-03-05T01:47:34.406Z,4.30
2023-03-05T01:47:44.404Z,4.60
2023-03-05T01:47:54.428Z,5.10
2023-03-05T01:48:04.412Z,5.10
2023-03-05T01:48:15.018Z,5.30
2023-03-05T01:48:24.587Z,5.20
2023-03-05T01:48:34.409Z,5.20
2023-03-05T01:48:44.405Z,4.90
2023-03-05T01:48:54.591Z,4.60
2023-03-05T01:49:04.510Z,5.30
2023-03-05T01:49:15.021Z,5.70
2023-03-05T01:49:24.422Z,6.00
2023-03-05T01:49:34.386Z,5.30
2023-03-05T01:49:44.395Z,5.30
2023-03-05T01:49:54.393Z,5.00
2023-03-05T01:50:04.426Z,4.70
2023-03-05T01:50:14.410Z,4.30
2023-03-05T01:50:24.524Z,4.60
2023-03-05T01:50:34.385Z,4.50
2023-03-05T01:50:44.403Z,4.40
2023-03-05T01:50:54.428Z,4.20
2023-03-05T01:51:04.483Z,4.60
2023-03-05T01:51:14.398Z,4.60
2023-03-05T01:51:24.401Z,5.10
2023-03-05T01:51:34.438Z,4.90
2023-03-05T01:51:44.396Z,5.20
2023-03-05T01:51:54.404Z,5.10
2023-03-05T01:52:04.393Z,5.20
2023-03-05T01:52:14.441Z,4.90
2023-03-05T01:52:25.020Z,5.30
2023-03-05T01:52:34.387Z,5.20
2023-03-05T01:52:44.407Z,5.30
2023-03-05T01:52:54.456Z,4.60
2023-03-05T01:53:04.376Z,4.50
2023-03-05T01:53:14.408Z,5.00
2023-03-05T01:53:24.372Z,5.50
2023-03-05T01:53:34.376Z,5.80
2023-03-05T01:53:44.405Z,5.20
2023-03-05T01:53:54.389Z,4.60
2023-03-05T01:54:05.031Z,4.80
2023-03-05T01:54:14.381Z,4.90
2023-03-05T01:54:24.451Z,5.30
2023-03-05T01:54:34.468Z,5.00
2023-03-05T01:54:45.062Z,5.20
2023-03-05T01:54:54.374Z,5.40
2023-03-05T01:55:04.422Z,6.10
2023-03-05T01:55:14.389Z,6.20
2023-03-05T01:55:25.033Z,5.60
2023-03-05T01:55:34.423Z,4.70
2023-03-05T01:55:44.380Z,4.10
2023-03-05T01:55:56.185Z,4.70
2023-03-05T01:56:04.382Z,4.40
2023-03-05T01:56:14.483Z,4.60
2023-03-05T01:56:24.362Z,4.10
2023-03-05T01:56:35.055Z,4.40
2023-03-05T01:56:44.354Z,5.40
2023-03-05T01:56:54.369Z,5.70
2023-03-05T01:57:04.367Z,6.50
2023-03-05T01:57:14.371Z,6.00
2023-03-05T01:57:24.350Z,6.00
2023-03-05T01:57:34.369Z,5.30
2023-03-05T01:57:44.365Z,5.10
2023-03-05T01:57:54.377Z,4.60
2023-03-05T01:58:04.400Z,4.30
2023-03-05T01:58:14.355Z,3.80
2023-03-05T01:58:24.348Z,5.30
2023-03-05T01:58:34.373Z,5.60
2023-03-05T01:58:44.469Z,5.70
2023-03-05T01:58:54.356Z,4.70
2023-03-05T01:59:04.355Z,4.60
2023-03-05T01:59:14.343Z,4.30
2023-03-05T01:59:24.348Z,4.40
2023-03-05T01:59:34.347Z,5.40
2023-03-05T01:59:44.499Z,6.40
2023-03-05T01:59:54.361Z,6.40
2023-03-05T02:00:04.398Z,5.10
2023-03-05T02:00:14.374Z,4.70
2023-03-05T02:00:24.360Z,4.60
2023-03-05T02:00:34.346Z,4.70
2023-03-05T02:00:45.093Z,5.10
2023-03-05T02:00:54.643Z,5.10
2023-03-05T02:01:04.409Z,5.30
2023-03-05T02:01:14.450Z,5.10
2023-03-05T02:01:24.481Z,4.70
2023-03-05T02:01:34.392Z,4.50
2023-03-05T02:01:44.380Z,4.40
2023-03-05T02:01:54.364Z,4.80
2023-03-05T02:02:04.350Z,5.50
2023-03-05T02:02:14.394Z,5.50
2023-03-05T02:02:24.328Z,5.40
2023-03-05T02:02:34.361Z,4.80
2023-03-05T02:02:44.402Z,4.90
2023-03-05T02:02:54.447Z,5.20
2023-03-05T02:03:04.340Z,4.90
2023-03-05T02:03:14.339Z,4.70
2023-03-05T02:03:24.379Z,4.60
2023-03-05T02:03:34.437Z,4.60
2023-03-05T02:03:44.382Z,4.40
2023-03-05T02:03:54.384Z,4.40
2023-03-05T02:04:04.370Z,4.70
2023-03-05T02:04:14.331Z,5.20
2023-03-05T02:04:24.438Z,5.50
2023-03-05T02:04:34.322Z,5.20
2023-03-05T02:04:44.322Z,4.70
2023-03-05T02:04:55.059Z,4.40
2023-03-05T02:05:04.317Z,4.50
2023-03-05T02:05:14.320Z,4.60
2023-03-05T02:05:24.326Z,5.50
2023-03-05T02:05:34.318Z,5.40
2023-03-05T02:05:44.345Z,5.40
2023-03-05T02:05:54.341Z,5.00
2023-03-05T02:06:04.334Z,5.10
2023-03-05T02:06:14.317Z,5.00
2023-03-05T02:06:24.400Z,4.30
2023-03-05T02:06:35.113Z,4.70
2023-03-05T02:06:44.370Z,4.60
2023-03-05T02:06:54.345Z,4.40
2023-03-05T02:07:04.405Z,4.10
2023-03-05T02:07:14.346Z,3.90
2023-03-05T02:07:24.386Z,3.90
2023-03-05T02:07:34.320Z,3.90
2023-03-05T02:07:44.378Z,4.20
2023-03-05T02:07:54.346Z,4.80
2023-03-05T02:08:04.304Z,4.40
2023-03-05T02:08:14.303Z,4.10
2023-03-05T02:08:24.302Z,3.80
2023-03-05T02:08:34.340Z,3.90
2023-03-05T02:08:44.306Z,4.10
2023-03-05T02:08:54.305Z,4.00
2023-03-05T02:09:04.359Z,4.10
2023-03-05T02:09:14.476Z,4.30
2023-03-05T02:09:24.322Z,4.70
2023-03-05T02:09:34.317Z,4.70
2023-03-05T02:09:44.315Z,4.40
2023-03-05T02:09:54.307Z,4.00
2023-03-05T02:10:04.319Z,4.50
2023-03-05T02:10:14.325Z,4.60
2023-03-05T02:10:24.418Z,4.80
2023-03-05T02:10:34.326Z,4.50
2023-03-05T02:10:44.355Z,4.80
2023-03-05T02:10:54.302Z,4.70
2023-03-05T02:11:04.316Z,4.90
2023-03-05T02:11:14.404Z,4.50
2023-03-05T02:11:24.296Z,4.40
2023-03-05T02:11:35.022Z,4.90
2023-03-05T02:11:44.348Z,4.60
2023-03-05T02:11:54.304Z,4.90
2023-03-05T02:12:04.336Z,4.50
2023-03-05T02:12:14.315Z,4.80
2023-03-05T02:12:24.306Z,4.60
2023-03-05T02:12:34.309Z,4.50
2023-03-05T02:12:45.366Z,4.90
2023-03-05T02:12:54.349Z,4.60
2023-03-05T02:13:04.336Z,4.40